createdAt,value
2018-09-21T00:00:59.175Z,11.40
2018-09-21T00:03:26.525Z,11.67
2018-09-21T00:05:53.904Z,12.03
2018-09-21T00:08:21.300Z,11.60
2018-09-21T00:10:48.819Z,12.07
2018-09-21T00:13:16.203Z,12.20
2018-09-21T00:15:43.650Z,11.80
2018-09-21T00:18:11.108Z,11.38
2018-09-21T00:20:38.561Z,11.48
2018-09-21T00:23:06.055Z,11.28
2018-09-21T00:25:33.556Z,11.48
2018-09-21T00:28:01.005Z,11.18
2018-09-21T00:30:28.490Z,11.10
2018-09-21T00:32:55.845Z,11.93
2018-09-21T00:35:23.247Z,11.40
2018-09-21T00:37:50.674Z,11.38
2018-09-21T00:40:18.245Z,11.18
2018-09-21T00:42:45.835Z,11.43
2018-09-21T00:45:13.228Z,11.83
2018-09-21T00:47:40.627Z,11.00
2018-09-21T00:50:07.976Z,11.45
2018-09-21T00:52:35.327Z,11.53
2018-09-21T00:55:02.946Z,11.57
2018-09-21T00:57:30.403Z,11.03
2018-09-21T00:59:57.971Z,11.40
2018-09-21T01:02:25.381Z,11.30
2018-09-21T01:04:52.791Z,11.37
2018-09-21T01:07:20.224Z,11.55
2018-09-21T01:09:47.681Z,11.48
2018-09-21T01:12:15.091Z,11.83
2018-09-21T01:14:42.553Z,11.65
2018-09-21T01:17:10.026Z,11.90
2018-09-21T01:19:37.522Z,14.18
2018-09-21T01:22:04.996Z,13.30
2018-09-21T01:24:32.555Z,12.60
2018-09-21T01:26:59.955Z,12.00
2018-09-21T01:29:27.443Z,12.97
2018-09-21T01:31:55.006Z,12.60
2018-09-21T01:34:22.493Z,12.82
2018-09-21T01:36:49.920Z,12.70
2018-09-21T01:39:17.379Z,12.45
2018-09-21T01:41:44.801Z,12.47
2018-09-21T01:44:12.294Z,12.45
2018-09-21T01:46:39.757Z,12.47
2018-09-21T01:49:07.495Z,12.63
2018-09-21T01:51:34.873Z,12.33
2018-09-21T01:54:02.258Z,12.30
2018-09-21T01:56:29.641Z,12.40
2018-09-21T01:58:57.035Z,12.58
2018-09-21T02:01:24.591Z,12.58
2018-09-21T02:03:52.030Z,12.50
2018-09-21T02:06:19.488Z,12.37
2018-09-21T02:08:46.958Z,12.35
2018-09-21T02:11:14.461Z,12.18
2018-09-21T02:13:41.877Z,11.90
2018-09-21T02:16:09.368Z,12.60
2018-09-21T02:18:36.867Z,12.55
2018-09-21T02:21:04.311Z,12.00
2018-09-21T02:23:31.784Z,12.30
2018-09-21T02:25:59.372Z,12.43
2018-09-21T02:28:26.829Z,12.57
2018-09-21T02:30:54.346Z,12.78
2018-09-21T02:33:21.680Z,12.85
2018-09-21T02:35:49.067Z,12.60
2018-09-21T02:38:16.393Z,12.67
2018-09-21T02:40:43.775Z,13.40
2018-09-21T02:43:11.130Z,12.60
2018-09-21T02:45:38.486Z,13.20
2018-09-21T02:48:06.072Z,13.40
2018-09-21T02:50:33.455Z,12.50
2018-09-21T02:53:00.913Z,12.98
2018-09-21T02:55:28.339Z,13.45
2018-09-21T02:57:55.714Z,13.85
2018-09-21T03:00:23.254Z,12.80
2018-09-21T03:02:50.665Z,14.07
2018-09-21T03:05:18.172Z,13.20
2018-09-21T03:07:45.661Z,13.38
2018-09-21T03:10:13.011Z,13.45
2018-09-21T03:12:40.448Z,13.10
2018-09-21T03:15:07.853Z,13.20
2018-09-21T03:17:35.162Z,13.38
2018-09-21T03:20:02.634Z,12.98
2018-09-21T03:22:30.086Z,12.68
2018-09-21T03:24:57.481Z,13.00
2018-09-21T03:27:24.868Z,12.33
2018-09-21T03:29:52.403Z,12.25
2018-09-21T03:32:19.808Z,13.10
2018-09-21T03:34:47.234Z,12.88
2018-09-21T03:37:14.716Z,12.70
2018-09-21T03:39:42.145Z,13.03
2018-09-21T03:42:09.619Z,13.80
2018-09-21T03:44:37.068Z,13.18
2018-09-21T03:47:04.675Z,12.85
2018-09-21T03:49:32.105Z,12.53
2018-09-21T03:51:59.596Z,12.98
2018-09-21T03:54:27.032Z,13.32
2018-09-21T03:56:54.529Z,12.85
2018-09-21T03:59:22.002Z,12.90
2018-09-21T04:01:49.487Z,12.93
2018-09-21T04:04:16.945Z,13.20
2018-09-21T04:06:44.373Z,12.93
2018-09-21T04:09:11.800Z,13.03
2018-09-21T04:11:39.321Z,13.13
2018-09-21T04:14:06.976Z,13.50
2018-09-21T04:16:34.382Z,13.43
2018-09-21T04:19:01.801Z,13.15
2018-09-21T04:21:29.273Z,13.28
2018-09-21T04:23:56.694Z,13.32
2018-09-21T04:26:24.157Z,13.20
2018-09-21T04:28:51.716Z,13.38
2018-09-21T04:31:19.107Z,12.63
2018-09-21T04:33:46.526Z,13.62
2018-09-21T04:36:14.085Z,14.35
2018-09-21T04:38:41.482Z,15.13
2018-09-21T04:41:08.908Z,14.70
2018-09-21T04:43:36.384Z,14.45
2018-09-21T04:46:03.839Z,14.30
2018-09-21T04:48:31.303Z,15.28
2018-09-21T04:50:58.801Z,14.80
2018-09-21T04:53:26.335Z,14.60
2018-09-21T04:55:53.872Z,15.72
2018-09-21T04:58:21.436Z,14.75
2018-09-21T05:00:49.238Z,15.70
2018-09-21T05:03:16.641Z,15.32
2018-09-21T05:05:45.400Z,15.98
2018-09-21T05:08:12.923Z,16.57
2018-09-21T05:10:40.382Z,16.27
2018-09-21T05:13:07.929Z,16.10
2018-09-21T05:15:35.526Z,15.10
2018-09-21T05:18:02.961Z,14.83
2018-09-21T05:20:30.932Z,15.35
2018-09-21T05:22:58.317Z,14.80
2018-09-21T05:25:25.877Z,14.30
2018-09-21T05:27:53.429Z,15.20
2018-09-21T05:30:20.885Z,15.48
2018-09-21T05:32:48.378Z,15.23
2018-09-21T05:35:15.958Z,15.37
2018-09-21T05:37:43.379Z,15.40
2018-09-21T05:40:10.986Z,15.55
2018-09-21T05:42:38.489Z,15.48
2018-09-21T05:45:06.062Z,15.93
2018-09-21T05:47:33.521Z,16.35
2018-09-21T05:50:00.924Z,16.60
2018-09-21T05:52:28.439Z,16.23
2018-09-21T05:54:55.982Z,16.20
2018-09-21T05:57:23.373Z,15.95
2018-09-21T05:59:50.809Z,15.40
2018-09-21T06:02:18.195Z,15.63
2018-09-21T06:04:45.641Z,16.42
2018-09-21T06:07:13.019Z,16.45
2018-09-21T06:09:40.504Z,16.52
2018-09-21T06:12:07.905Z,15.20
2018-09-21T06:14:35.395Z,15.93
2018-09-21T06:17:02.840Z,16.35
2018-09-21T06:19:30.381Z,15.85
2018-09-21T06:21:57.783Z,15.80
2018-09-21T06:24:25.207Z,15.60
2018-09-21T06:26:52.585Z,14.75
2018-09-21T06:29:20.016Z,15.28
2018-09-21T06:31:47.402Z,15.05
2018-09-21T06:34:14.817Z,14.03
2018-09-21T06:36:42.213Z,15.20
2018-09-21T06:39:10.935Z,14.87
2018-09-21T06:41:40.415Z,14.60
2018-09-21T06:44:09.053Z,14.50
2018-09-21T06:46:36.558Z,14.30
2018-09-21T06:49:04.132Z,14.20
2018-09-21T06:51:31.647Z,13.93
2018-09-21T06:53:59.085Z,13.98
2018-09-21T06:56:26.556Z,13.70
2018-09-21T06:58:54.072Z,14.15
2018-09-21T07:01:21.473Z,13.03
2018-09-21T07:03:48.973Z,13.78
2018-09-21T07:06:16.449Z,13.60
2018-09-21T07:08:44.007Z,13.53
2018-09-21T07:11:11.556Z,13.70
2018-09-21T07:13:38.951Z,13.88
2018-09-21T07:16:06.416Z,13.50
2018-09-21T07:18:33.877Z,13.13
2018-09-21T07:21:01.321Z,12.57
2018-09-21T07:23:28.715Z,12.57
2018-09-21T07:25:56.333Z,12.40
2018-09-21T07:28:23.791Z,12.33
2018-09-21T07:30:51.222Z,12.23
2018-09-21T07:33:18.563Z,12.18
2018-09-21T07:35:46.236Z,12.28
2018-09-21T07:38:13.743Z,11.85
2018-09-21T07:40:41.157Z,11.68
2018-09-21T07:43:08.696Z,11.90
2018-09-21T07:45:36.103Z,11.73
2018-09-21T07:48:03.608Z,11.50
2018-09-21T07:50:31.126Z,11.22
2018-09-21T07:52:58.521Z,11.00
2018-09-21T07:55:25.984Z,11.00
2018-09-21T07:57:53.626Z,10.88
2018-09-21T08:00:21.080Z,11.18
2018-09-21T08:02:48.557Z,10.85
2018-09-21T08:05:18.375Z,9.93
2018-09-21T08:07:45.742Z,10.38
2018-09-21T08:10:13.157Z,10.07
2018-09-21T08:12:40.998Z,9.90
2018-09-21T08:15:08.529Z,10.15
2018-09-21T08:17:35.991Z,10.03
2018-09-21T08:20:03.496Z,10.35
2018-09-21T08:22:30.960Z,10.50
2018-09-21T08:24:58.543Z,9.88
2018-09-21T08:27:26.086Z,10.20
2018-09-21T08:29:54.151Z,10.10
2018-09-21T08:32:21.573Z,10.15
2018-09-21T08:34:49.055Z,10.03
2018-09-21T08:37:16.601Z,9.88
2018-09-21T08:39:44.048Z,9.43
2018-09-21T08:42:11.647Z,9.90
2018-09-21T08:44:39.053Z,10.00
2018-09-21T08:49:59.565Z,10.00
2018-09-21T08:52:27.061Z,10.05
2018-09-21T08:54:54.663Z,10.38
2018-09-21T08:57:22.173Z,10.03
2018-09-21T08:59:49.752Z,9.70
2018-09-21T09:02:17.154Z,10.27
2018-09-21T09:04:44.618Z,10.10
2018-09-21T09:07:12.109Z,9.78
2018-09-21T09:09:39.593Z,10.28
2018-09-21T09:12:07.072Z,9.30
2018-09-21T09:14:34.580Z,9.28
2018-09-21T09:17:02.120Z,9.00
2018-09-21T09:19:29.653Z,8.50
2018-09-21T09:21:57.135Z,8.80
2018-09-21T09:24:24.732Z,8.90
2018-09-21T09:26:52.211Z,8.68
2018-09-21T09:29:19.725Z,8.80
2018-09-21T09:31:47.230Z,8.20
2018-09-21T09:34:14.676Z,8.78
2018-09-21T09:36:42.134Z,8.38
2018-09-21T09:39:11.590Z,8.58
2018-09-21T09:41:40.930Z,8.58
2018-09-21T09:44:08.879Z,8.55
2018-09-21T09:46:36.404Z,8.28
2018-09-21T09:49:04.203Z,8.60
2018-09-21T09:51:31.548Z,8.03
2018-09-21T09:53:59.079Z,8.60
2018-09-21T09:56:26.551Z,8.03
2018-09-21T09:58:54.210Z,7.90
2018-09-21T10:01:21.648Z,8.50
2018-09-21T10:03:49.207Z,8.30
2018-09-21T10:06:16.704Z,8.58
2018-09-21T10:08:44.160Z,8.78
2018-09-21T10:11:11.618Z,7.87
2018-09-21T10:13:39.130Z,8.53
2018-09-21T10:16:06.547Z,8.43
2018-09-21T10:18:34.023Z,8.38
2018-09-21T10:21:01.449Z,7.95
2018-09-21T10:23:28.869Z,8.18
2018-09-21T10:25:56.332Z,8.18
2018-09-21T10:28:23.883Z,8.90
2018-09-21T10:30:51.261Z,8.18
2018-09-21T10:33:18.864Z,8.75
2018-09-21T10:35:46.265Z,8.53
2018-09-21T10:38:13.737Z,8.63
2018-09-21T10:40:41.222Z,8.63
2018-09-21T10:43:08.699Z,8.70
2018-09-21T10:45:36.143Z,8.30
2018-09-21T10:48:03.583Z,8.40
2018-09-21T10:50:31.013Z,8.68
2018-09-21T10:52:58.345Z,8.85
2018-09-21T10:55:25.799Z,8.50
2018-09-21T10:57:53.264Z,8.50
2018-09-21T11:00:20.859Z,8.03
2018-09-21T11:02:48.258Z,8.18
2018-09-21T11:05:15.725Z,8.60
2018-09-21T11:07:43.099Z,8.03
2018-09-21T11:10:10.625Z,8.00
2018-09-21T11:12:38.104Z,8.00
2018-09-21T11:15:05.683Z,7.80
2018-09-21T11:17:33.134Z,8.33
2018-09-21T11:20:00.590Z,8.05
2018-09-21T11:22:28.059Z,8.20
2018-09-21T11:24:55.526Z,8.10
2018-09-21T11:27:23.124Z,7.35
2018-09-21T11:29:50.572Z,7.37
2018-09-21T11:32:17.990Z,7.33
2018-09-21T11:34:45.568Z,7.20
2018-09-21T11:37:13.025Z,6.90
2018-09-21T11:39:40.434Z,6.42
2018-09-21T11:42:07.847Z,6.95
2018-09-21T11:44:35.482Z,6.97
2018-09-21T11:47:03.013Z,6.97
2018-09-21T11:49:30.423Z,6.30
2018-09-21T11:51:57.876Z,6.20
2018-09-21T11:54:25.474Z,5.72
2018-09-21T11:56:52.880Z,5.93
2018-09-21T11:59:20.315Z,5.97
2018-09-21T12:01:48.005Z,5.85
2018-09-21T12:04:15.547Z,5.67
2018-09-21T12:06:42.988Z,5.90
2018-09-21T12:09:10.387Z,6.20
2018-09-21T12:11:37.900Z,5.53
2018-09-21T12:14:05.416Z,5.50
2018-09-21T12:16:32.839Z,5.12
2018-09-21T12:19:00.289Z,5.12
2018-09-21T12:21:27.752Z,5.08
2018-09-21T12:23:55.211Z,4.90
2018-09-21T12:26:22.847Z,4.40
2018-09-21T12:28:50.203Z,4.80
2018-09-21T12:31:17.792Z,4.40
2018-09-21T12:33:45.183Z,4.33
2018-09-21T12:36:12.604Z,4.17
2018-09-21T12:38:40.043Z,4.27
2018-09-21T12:41:07.419Z,4.50
2018-09-21T12:43:34.852Z,4.42
2018-09-21T12:46:04.515Z,4.22
2018-09-21T12:48:32.121Z,4.12
2018-09-21T12:50:59.757Z,4.00
2018-09-21T12:53:27.105Z,3.90
2018-09-21T12:55:54.646Z,4.10
2018-09-21T12:58:22.192Z,4.00
2018-09-21T13:00:51.197Z,3.90
2018-09-21T13:03:19.424Z,3.70
2018-09-21T13:05:49.213Z,4.17
2018-09-21T13:08:16.648Z,3.87
2018-09-21T13:10:43.979Z,3.70
2018-09-21T13:13:11.403Z,4.00
2018-09-21T13:15:38.815Z,3.50
2018-09-21T13:18:06.198Z,3.58
2018-09-21T13:20:33.551Z,4.03
2018-09-21T13:23:00.956Z,3.65
2018-09-21T13:25:28.473Z,3.60
2018-09-21T13:27:55.963Z,3.50
2018-09-21T13:30:23.364Z,3.70
2018-09-21T13:32:50.677Z,3.52
2018-09-21T13:35:18.115Z,3.80
2018-09-21T13:37:45.574Z,3.55
2018-09-21T13:40:13.038Z,3.42
2018-09-21T13:42:40.517Z,3.47
2018-09-21T13:45:07.961Z,3.52
2018-09-21T13:47:35.429Z,3.70
2018-09-21T13:50:02.890Z,3.17
2018-09-21T13:52:30.223Z,3.40
2018-09-21T13:54:57.644Z,3.50
2018-09-21T13:57:25.137Z,3.40
2018-09-21T13:59:52.566Z,3.33
2018-09-21T14:02:19.919Z,3.62
2018-09-21T14:04:47.346Z,4.17
2018-09-21T14:07:14.868Z,4.05
2018-09-21T14:09:42.239Z,4.12
2018-09-21T14:12:09.625Z,4.10
2018-09-21T14:14:37.054Z,4.00
2018-09-21T14:17:04.481Z,3.90
2018-09-21T14:19:31.962Z,3.47
2018-09-21T14:21:59.402Z,2.80
2018-09-21T14:24:26.772Z,2.45
2018-09-21T14:26:54.153Z,2.98
2018-09-21T14:29:21.573Z,2.70
2018-09-21T14:31:49.057Z,1.70
2018-09-21T14:34:16.449Z,1.62
2018-09-21T14:36:43.815Z,1.60
2018-09-21T14:39:11.648Z,1.30
2018-09-21T14:41:39.196Z,1.20
2018-09-21T14:44:07.007Z,1.80
2018-09-21T14:46:34.493Z,1.95
2018-09-21T14:49:02.067Z,1.45
2018-09-21T14:51:29.516Z,1.10
2018-09-21T14:53:56.964Z,1.42
2018-09-21T14:56:24.526Z,1.50
2018-09-21T14:58:51.988Z,1.20
2018-09-21T15:01:19.366Z,1.55
2018-09-21T15:03:46.800Z,1.37
2018-09-21T15:06:14.154Z,1.37
2018-09-21T15:08:41.675Z,1.70
2018-09-21T15:11:09.238Z,1.70
2018-09-21T15:13:36.690Z,1.20
2018-09-21T15:16:04.354Z,1.20
2018-09-21T15:18:31.884Z,1.12
2018-09-21T15:20:59.574Z,1.50
2018-09-21T15:23:27.170Z,1.30
2018-09-21T15:25:54.721Z,1.90
2018-09-21T15:28:22.211Z,1.60
2018-09-21T15:30:49.661Z,2.00
2018-09-21T15:33:17.247Z,2.05
2018-09-21T15:35:44.669Z,1.95
2018-09-21T15:38:12.134Z,2.58
2018-09-21T15:40:39.607Z,2.40
2018-09-21T15:43:07.318Z,2.55
2018-09-21T15:45:34.647Z,2.50
2018-09-21T15:48:02.107Z,2.30
2018-09-21T15:50:29.518Z,2.70
2018-09-21T15:52:56.930Z,3.10
2018-09-21T15:55:24.618Z,2.70
2018-09-21T15:57:52.473Z,2.80
2018-09-21T16:00:20.078Z,2.35
2018-09-21T16:02:47.519Z,2.80
2018-09-21T16:05:14.972Z,2.80
2018-09-21T16:07:42.429Z,2.50
2018-09-21T16:10:09.949Z,2.40
2018-09-21T16:12:37.400Z,2.40
2018-09-21T16:15:05.038Z,2.40
2018-09-21T16:17:32.467Z,2.20
2018-09-21T16:19:59.907Z,2.67
2018-09-21T16:22:27.437Z,2.10
2018-09-21T16:24:54.880Z,2.10
2018-09-21T16:27:22.415Z,2.12
2018-09-21T16:29:49.863Z,2.27
2018-09-21T16:32:17.253Z,2.42
2018-09-21T16:34:44.680Z,2.30
2018-09-21T16:37:12.066Z,2.15
2018-09-21T16:39:39.546Z,2.20
2018-09-21T16:42:07.114Z,2.60
2018-09-21T16:44:34.564Z,2.80
2018-09-21T16:47:01.996Z,3.52
2018-09-21T16:49:29.319Z,2.75
2018-09-21T16:51:56.824Z,2.70
2018-09-21T16:54:24.295Z,2.80
2018-09-21T16:56:51.730Z,2.75
2018-09-21T16:59:19.184Z,2.70
2018-09-21T17:01:46.638Z,2.60
2018-09-21T17:04:14.199Z,2.60
2018-09-21T17:06:41.633Z,2.50
2018-09-21T17:09:11.403Z,3.12
2018-09-21T17:11:39.025Z,2.70
2018-09-21T17:14:06.497Z,2.92
2018-09-21T17:16:33.931Z,2.90
2018-09-21T17:19:01.479Z,3.10
2018-09-21T17:21:28.916Z,3.10
2018-09-21T17:23:56.331Z,2.90
2018-09-21T17:26:23.776Z,3.00
2018-09-21T17:28:51.199Z,3.07
2018-09-21T17:31:18.861Z,2.50
2018-09-21T17:33:46.479Z,3.05
2018-09-21T17:36:13.929Z,2.85
2018-09-21T17:38:41.514Z,3.17
2018-09-21T17:41:09.083Z,3.03
2018-09-21T17:43:36.507Z,3.02
2018-09-21T17:46:04.118Z,2.60
2018-09-21T17:48:31.979Z,2.98
2018-09-21T17:50:59.628Z,2.85
2018-09-21T17:53:27.217Z,2.87
2018-09-21T17:55:54.616Z,2.75
2018-09-21T17:58:22.064Z,2.90
2018-09-21T18:00:49.739Z,2.85
2018-09-21T18:03:17.536Z,3.00
2018-09-21T18:05:45.006Z,2.90
2018-09-21T18:08:12.644Z,2.90
2018-09-21T18:10:40.148Z,3.08
2018-09-21T18:13:07.568Z,3.20
2018-09-21T18:15:35.014Z,2.90
2018-09-21T18:18:02.350Z,3.12
2018-09-21T18:20:29.780Z,3.42
2018-09-21T18:22:57.232Z,3.50
2018-09-21T18:25:24.708Z,3.35
2018-09-21T18:27:52.121Z,3.20
2018-09-21T18:30:19.666Z,3.40
2018-09-21T18:32:47.121Z,3.35
2018-09-21T18:35:14.641Z,3.05
2018-09-21T18:37:42.108Z,3.85
2018-09-21T18:40:09.589Z,3.85
2018-09-21T18:42:37.155Z,3.80
2018-09-21T18:45:04.553Z,3.43
2018-09-21T18:47:31.999Z,3.50
2018-09-21T18:49:59.554Z,3.70
2018-09-21T18:52:26.945Z,3.33
2018-09-21T18:54:54.484Z,3.20
2018-09-21T18:57:22.009Z,3.20
2018-09-21T18:59:49.425Z,3.50
2018-09-21T19:02:16.869Z,3.35
2018-09-21T19:04:44.344Z,3.30
2018-09-21T19:07:17.538Z,3.50
2018-09-21T19:09:45.007Z,3.42
2018-09-21T19:12:12.625Z,3.30
2018-09-21T19:14:40.199Z,3.33
2018-09-21T19:17:07.627Z,3.40
2018-09-21T19:19:35.025Z,3.12
2018-09-21T19:22:02.836Z,3.08
2018-09-21T19:24:30.270Z,3.33
2018-09-21T19:26:57.790Z,3.17
2018-09-21T19:29:25.341Z,3.30
2018-09-21T19:31:52.806Z,3.00
2018-09-21T19:34:20.262Z,3.22
2018-09-21T19:36:47.782Z,2.90
2018-09-21T19:39:15.281Z,3.17
2018-09-21T19:41:45.693Z,2.90
2018-09-21T19:44:13.261Z,3.20
2018-09-21T19:46:40.789Z,3.27
2018-09-21T19:49:08.259Z,3.00
2018-09-21T19:51:35.668Z,2.67
2018-09-21T19:54:04.939Z,2.70
2018-09-21T19:56:50.669Z,3.12
2018-09-21T19:59:18.231Z,2.75
2018-09-21T20:01:45.594Z,3.30
2018-09-21T20:04:13.050Z,3.15
2018-09-21T20:06:40.417Z,3.33
2018-09-21T20:09:09.429Z,3.20
2018-09-21T20:11:37.914Z,2.72
2018-09-21T20:14:05.549Z,3.15
2018-09-21T20:16:33.012Z,2.58
2018-09-21T20:19:00.530Z,2.92
2018-09-21T20:21:28.201Z,2.80
2018-09-21T20:23:55.593Z,2.83
2018-09-21T20:26:23.113Z,2.75
2018-09-21T20:28:50.656Z,2.83
2018-09-21T20:31:23.945Z,2.90
2018-09-21T20:33:51.410Z,3.17
2018-09-21T20:36:18.894Z,3.10
2018-09-21T20:38:47.334Z,3.12
2018-09-21T20:41:14.918Z,2.80
2018-09-21T20:43:42.399Z,2.90
2018-09-21T20:46:09.826Z,2.95
2018-09-21T20:48:37.237Z,2.85
2018-09-21T20:51:04.686Z,3.00
2018-09-21T20:53:32.189Z,3.10
2018-09-21T20:55:59.785Z,2.98
2018-09-21T20:58:27.162Z,3.17
2018-09-21T21:00:54.625Z,3.12
2018-09-21T21:03:22.117Z,3.20
2018-09-21T21:07:06.771Z,0.00
2018-09-21T21:09:34.466Z,0.00
2018-09-21T21:12:02.151Z,0.00
2018-09-21T21:14:29.797Z,0.00
2018-09-21T21:17:01.125Z,0.00
2018-09-21T21:19:28.994Z,0.00
2018-09-21T21:21:56.481Z,0.00
2018-09-21T21:24:24.062Z,0.00
2018-09-21T21:26:51.679Z,0.00
2018-09-21T21:29:19.370Z,0.00
2018-09-21T21:31:46.991Z,0.00
2018-09-21T21:34:14.469Z,0.00
2018-09-21T21:36:41.932Z,0.00
2018-09-21T21:39:09.974Z,0.00
2018-09-21T21:41:37.664Z,0.00
2018-09-21T21:44:06.524Z,0.00
2018-09-21T21:46:33.987Z,0.00
2018-09-21T21:49:01.560Z,0.00
2018-09-21T21:51:29.241Z,0.00
2018-09-21T21:53:56.817Z,0.00
2018-09-21T21:56:24.203Z,0.00
2018-09-21T21:58:51.718Z,0.00
2018-09-21T22:08:24.033Z,0.00
2018-09-21T22:10:51.632Z,0.00
2018-09-21T22:13:24.915Z,0.00
2018-09-21T22:15:52.406Z,0.00
2018-09-21T22:18:20.047Z,0.00
2018-09-21T22:20:48.292Z,0.00
2018-09-21T22:23:15.762Z,0.00
2018-09-21T22:25:43.241Z,0.00
2018-09-21T22:28:10.667Z,0.00
2018-09-21T22:30:38.211Z,0.00
2018-09-21T22:33:05.672Z,0.00
2018-09-21T22:35:33.141Z,0.00
2018-09-21T22:38:00.608Z,0.00
2018-09-21T22:40:28.085Z,0.00
2018-09-21T22:42:56.832Z,0.00
2018-09-21T22:45:24.320Z,0.00
2018-09-21T22:47:52.264Z,0.00
2018-09-21T22:50:19.744Z,0.00
2018-09-21T22:52:47.304Z,0.00
2018-09-21T22:55:14.730Z,0.00
2018-09-21T22:57:42.161Z,0.00
2018-09-21T23:00:09.831Z,0.00
2018-09-21T23:02:37.376Z,0.00
2018-09-21T23:05:04.833Z,0.00
2018-09-21T23:07:32.282Z,0.00
2018-09-21T23:09:59.794Z,0.00
2018-09-21T23:12:27.302Z,0.00
2018-09-21T23:14:55.045Z,0.00
2018-09-21T23:17:22.551Z,0.00
2018-09-21T23:22:32.462Z,0.00
2018-09-21T23:25:00.123Z,0.00
2018-09-21T23:27:27.628Z,0.00
2018-09-21T23:29:55.899Z,0.00
2018-09-21T23:32:23.347Z,0.00
2018-09-21T23:34:50.856Z,0.00
2018-09-21T23:37:18.294Z,0.00
2018-09-21T23:39:46.053Z,0.00
2018-09-21T23:42:13.884Z,0.00
2018-09-21T23:44:41.364Z,0.00
2018-09-21T23:47:09.209Z,0.00
2018-09-21T23:49:36.725Z,0.00
2018-09-21T23:52:04.387Z,0.00
2018-09-21T23:54:31.957Z,0.00
2018-09-21T23:56:59.743Z,0.00
2018-09-21T23:59:27.353Z,0.00
